Platamon — SW7972 — position and weather

sailwx.info

Track history (hours):
 
Tides and Currents Weather Stations Pressure Air Temp Water Temp Dewpoint Dewpoint Depression Visibility Wind Speed Wind Dir Waves Ship Positions

Platamon

Last reported at 2017-Nov-20 00:30 UTC. Time now 2017-Nov-20 19:17 UTC.
Position N 37°57' E 023°37'.

Length 28 m.

Type: Fishing. MMSI: 237644000.

Date/timePositionNaut miles runAvg speedWind from/ knotsBaromVisibWave heightAir tempDewpointWater temp
2017-Nov-20 00:30N 37°57' E 023°37'0 0.0
2017-Nov-20 00:00N 37°57' E 023°37'0 0.0
2017-Nov-19 23:30N 37°57' E 023°37'0 0.0
2017-Nov-19 23:00N 37°57' E 023°37'0 0.0
2017-Nov-19 22:30N 37°57' E 023°37'0 0.0
2017-Nov-19 22:00N 37°57' E 023°37'0 0.0
2017-Nov-19 21:30N 37°57' E 023°37'0 0.0
2017-Nov-19 21:00N 37°57' E 023°37'0 0.0
2017-Nov-19 20:30N 37°57' E 023°37'0 0.0
2017-Nov-19 20:00N 37°57' E 023°37'0 0.0
2017-Nov-19 19:30N 37°57' E 023°37'0 0.0
2017-Nov-19 19:00N 37°57' E 023°37'0 0.0
2017-Nov-19 18:30N 37°57' E 023°37'0 0.0
2017-Nov-19 18:00N 37°57' E 023°37'0 0.0
2017-Nov-19 17:30N 37°57' E 023°37'1 2.8
2017-Nov-19 17:00N 37°56' E 023°36'5 9.1
2017-Nov-19 16:30N 37°52' E 023°37'3 5.7
2017-Nov-19 16:00N 37°49' E 023°37'1 2.2
2017-Nov-19 15:30N 37°48' E 023°36'1 1.8
2017-Nov-19 15:01N 37°49' E 023°36'1 1.5
2017-Nov-19 14:29N 37°49' E 023°35'2 3.0
2017-Nov-19 13:44N 37°50' E 023°32'1 3.3
2017-Nov-19 13:30N 37°50' E 023°31'1 2.0
2017-Nov-19 12:59N 37°49' E 023°31'2 3.1
2017-Nov-19 12:30N 37°48' E 023°33'2 3.2
2017-Nov-19 12:00N 37°49' E 023°35'1 1.3
2017-Nov-19 11:30N 37°50' E 023°35'2 3.2
2017-Nov-19 10:44N 37°50' E 023°32'1 3.1
2017-Nov-19 10:30N 37°50' E 023°31'2 3.2
2017-Nov-19 09:47N 37°51' E 023°28'1 3.3
2017-Nov-19 09:31N 37°51' E 023°27'2 3.2
2017-Nov-19 09:00N 37°51' E 023°25'2 3.4
2017-Nov-19 08:29N 37°51' E 023°23'0 0.6
2017-Nov-19 08:00N 37°51' E 023°22'2 3.0
2017-Nov-19 07:30N 37°51' E 023°24'1 3.0
2017-Nov-19 07:00N 37°51' E 023°26'1 3.0
2017-Nov-19 06:30N 37°51' E 023°28'2 3.3
2017-Nov-19 06:00N 37°50' E 023°30'2 3.1
2017-Nov-19 05:29N 37°50' E 023°32'1 3.0
2017-Nov-19 05:00N 37°50' E 023°34'2 3.8
2017-Nov-19 04:30N 37°49' E 023°36'5 8.5
2017-Nov-19 03:55N 37°44' E 023°35'0 0.6
2017-Nov-19 03:30N 37°44' E 023°35'1 2.7
2017-Nov-19 03:00N 37°46' E 023°36'1 2.9
2017-Nov-19 02:30N 37°46' E 023°38'2 3.1
2017-Nov-19 01:57N 37°46' E 023°40'1 3.1
2017-Nov-19 01:30N 37°46' E 023°42'1 2.2
2017-Nov-19 01:00N 37°46' E 023°43'1 2.1
2017-Nov-19 00:20N 37°46' E 023°42'1 3.1
2017-Nov-19 00:00N 37°46' E 023°40'2 3.0
2017-Nov-18 23:27N 37°46' E 023°38'1 3.0
2017-Nov-18 23:00N 37°46' E 023°37'2 2.9
2017-Nov-18 22:18N 37°44' E 023°35'0 1.0
2017-Nov-18 22:00N 37°44' E 023°35'1 2.9
2017-Nov-18 21:30N 37°45' E 023°37'2 3.2
2017-Nov-18 20:59N 37°45' E 023°39'2 3.3
2017-Nov-18 20:30N 37°45' E 023°41'2 3.7
2017-Nov-18 19:59N 37°45' E 023°44'0 0.6
2017-Nov-18 19:30N 37°45' E 023°43'2 3.1
2017-Nov-18 18:59N 37°45' E 023°41'2 3.1
2017-Nov-18 18:28N 37°45' E 023°39'1 3.0
2017-Nov-18 17:59N 37°45' E 023°37'2 2.5
2017-Nov-18 17:10N 37°44' E 023°35'0 0.3
2017-Nov-18 17:00N 37°44' E 023°35'1 2.9
2017-Nov-18 16:30N 37°45' E 023°37'2 3.2
2017-Nov-18 15:51N 37°45' E 023°39'1 2.3
2017-Nov-18 15:27N 37°45' E 023°40'1 3.4
2017-Nov-18 15:00N 37°45' E 023°42'1 0.1
2017-Nov-18 04:38N 37°45' E 023°44'1 8.9
2017-Nov-18 04:30N 37°46' E 023°43'5 9.2
2017-Nov-18 04:00N 37°50' E 023°41'5 9.2
2017-Nov-18 03:30N 37°54' E 023°38'3 4.9
2017-Nov-18 02:52N 37°57' E 023°37'0 0.0
2017-Nov-18 02:30N 37°57' E 023°37'0 0.2
2017-Nov-18 01:09N 37°57' E 023°36'1 6.5
2017-Nov-18 01:00N 37°57' E 023°36'4 8.6
2017-Nov-18 00:30N 37°52' E 023°36'4 7.1
2017-Nov-18 00:00N 37°49' E 023°36'1 1.9
2017-Nov-17 23:28N 37°48' E 023°36'3 5.5
2017-Nov-17 23:00N 37°46' E 023°35'1 2.4
2017-Nov-17 22:27N 37°44' E 023°35'1 3.1
2017-Nov-17 22:00N 37°45' E 023°36'1 3.0
2017-Nov-17 21:30N 37°46' E 023°38'2 3.2
2017-Nov-17 21:00N 37°46' E 023°40'2 3.3
2017-Nov-17 20:27N 37°46' E 023°42'1 0.7
2017-Nov-17 19:08N 37°45' E 023°41'0 3.2
2017-Nov-17 19:00N 37°45' E 023°41'2 3.1
2017-Nov-17 18:26N 37°45' E 023°38'1 3.1
2017-Nov-17 17:58N 37°45' E 023°37'1 2.3
2017-Nov-17 17:30N 37°44' E 023°35'4 7.3
2017-Nov-17 17:00N 37°48' E 023°34'1 1.8
2017-Nov-17 16:30N 37°48' E 023°33'5 2.7
2017-Nov-17 14:30N 37°51' E 023°27'2 3.5
2017-Nov-17 13:56N 37°51' E 023°24'0 0.9
2017-Nov-17 13:30N 37°50' E 023°25'2 3.3
2017-Nov-17 12:58N 37°51' E 023°27'2 3.3
2017-Nov-17 12:26N 37°50' E 023°29'1 3.1
2017-Nov-17 11:58N 37°50' E 023°31'2 3.2
2017-Nov-17 11:19N 37°50' E 023°33'1 3.2
2017-Nov-17 11:00N 37°49' E 023°35'8 1.9
2017-Nov-17 06:39N 37°57' E 023°37'0 0.0
2017-Nov-17 06:30N 37°57' E 023°37'0 0.0
2017-Nov-17 06:00N 37°57' E 023°37'0 0.0
2017-Nov-17 05:30N 37°57' E 023°37'2 3.3
2017-Nov-17 05:00N 37°56' E 023°36'0 0.9
2017-Nov-17 04:30N 37°56' E 023°36'2 4.1
2017-Nov-17 04:01N 37°57' E 023°37'  
2017-Nov-10 20:47N 36°59' E 025°16'2 8.1
2017-Nov-10 20:30N 37°02' E 025°16'1 1.2
2017-Nov-10 20:01N 37°02' E 025°16'0 0.0
2017-Nov-10 19:30N 37°02' E 025°16'0 0.0
2017-Nov-10 19:01N 37°02' E 025°16'0 0.0
2017-Nov-10 18:30N 37°02' E 025°16'0 0.0
2017-Nov-10 18:00N 37°02' E 025°16'0 0.0
2017-Nov-10 17:30N 37°02' E 025°16'0 0.0
2017-Nov-10 17:01N 37°02' E 025°16'0 0.0
2017-Nov-10 16:14N 37°02' E 025°16'0 0.0
2017-Nov-10 16:00N 37°02' E 025°16'0 0.0
2017-Nov-10 15:31N 37°02' E 025°16'0 0.8
2017-Nov-10 15:00N 37°02' E 025°16'  
Track history (hours):
 
Tides and Currents Weather Stations Pressure Air Temp Water Temp Dewpoint Dewpoint Depression Visibility Wind Speed Wind Dir Waves Ship Positions

Platamon

Last reported at 2017-Nov-20 00:30 UTC. Time now 2017-Nov-20 19:17 UTC.
Position N 37°57' E 023°37'.

Length 28 m.

Type: Fishing. MMSI: 237644000.

Date/timePositionNaut miles runAvg speedWind from/ knotsBaromVisibWave heightAir tempDewpointWater temp
2017-Nov-20 00:30N 37°57' E 023°37'0 0.0
2017-Nov-20 00:00N 37°57' E 023°37'0 0.0
2017-Nov-19 23:30N 37°57' E 023°37'0 0.0
2017-Nov-19 23:00N 37°57' E 023°37'0 0.0
2017-Nov-19 22:30N 37°57' E 023°37'0 0.0
2017-Nov-19 22:00N 37°57' E 023°37'0 0.0
2017-Nov-19 21:30N 37°57' E 023°37'0 0.0
2017-Nov-19 21:00N 37°57' E 023°37'0 0.0
2017-Nov-19 20:30N 37°57' E 023°37'0 0.0
2017-Nov-19 20:00N 37°57' E 023°37'0 0.0
2017-Nov-19 19:30N 37°57' E 023°37'0 0.0
2017-Nov-19 19:00N 37°57' E 023°37'0 0.0
2017-Nov-19 18:30N 37°57' E 023°37'0 0.0
2017-Nov-19 18:00N 37°57' E 023°37'0 0.0
2017-Nov-19 17:30N 37°57' E 023°37'1 2.8
2017-Nov-19 17:00N 37°56' E 023°36'5 9.1
2017-Nov-19 16:30N 37°52' E 023°37'3 5.7
2017-Nov-19 16:00N 37°49' E 023°37'1 2.2
2017-Nov-19 15:30N 37°48' E 023°36'1 1.8
2017-Nov-19 15:01N 37°49' E 023°36'1 1.5
2017-Nov-19 14:29N 37°49' E 023°35'2 3.0
2017-Nov-19 13:44N 37°50' E 023°32'1 3.3
2017-Nov-19 13:30N 37°50' E 023°31'1 2.0
2017-Nov-19 12:59N 37°49' E 023°31'2 3.1
2017-Nov-19 12:30N 37°48' E 023°33'2 3.2
2017-Nov-19 12:00N 37°49' E 023°35'1 1.3
2017-Nov-19 11:30N 37°50' E 023°35'2 3.2
2017-Nov-19 10:44N 37°50' E 023°32'1 3.1
2017-Nov-19 10:30N 37°50' E 023°31'2 3.2
2017-Nov-19 09:47N 37°51' E 023°28'1 3.3
2017-Nov-19 09:31N 37°51' E 023°27'2 3.2
2017-Nov-19 09:00N 37°51' E 023°25'2 3.4
2017-Nov-19 08:29N 37°51' E 023°23'0 0.6
2017-Nov-19 08:00N 37°51' E 023°22'2 3.0
2017-Nov-19 07:30N 37°51' E 023°24'1 3.0
2017-Nov-19 07:00N 37°51' E 023°26'1 3.0
2017-Nov-19 06:30N 37°51' E 023°28'2 3.3
2017-Nov-19 06:00N 37°50' E 023°30'2 3.1
2017-Nov-19 05:29N 37°50' E 023°32'1 3.0
2017-Nov-19 05:00N 37°50' E 023°34'2 3.8
2017-Nov-19 04:30N 37°49' E 023°36'5 8.5
2017-Nov-19 03:55N 37°44' E 023°35'0 0.6
2017-Nov-19 03:30N 37°44' E 023°35'1 2.7
2017-Nov-19 03:00N 37°46' E 023°36'1 2.9
2017-Nov-19 02:30N 37°46' E 023°38'2 3.1
2017-Nov-19 01:57N 37°46' E 023°40'1 3.1
2017-Nov-19 01:30N 37°46' E 023°42'1 2.2
2017-Nov-19 01:00N 37°46' E 023°43'1 2.1
2017-Nov-19 00:20N 37°46' E 023°42'1 3.1
2017-Nov-19 00:00N 37°46' E 023°40'2 3.0
2017-Nov-18 23:27N 37°46' E 023°38'1 3.0
2017-Nov-18 23:00N 37°46' E 023°37'2 2.9
2017-Nov-18 22:18N 37°44' E 023°35'0 1.0
2017-Nov-18 22:00N 37°44' E 023°35'1 2.9
2017-Nov-18 21:30N 37°45' E 023°37'2 3.2
2017-Nov-18 20:59N 37°45' E 023°39'2 3.3
2017-Nov-18 20:30N 37°45' E 023°41'2 3.7
2017-Nov-18 19:59N 37°45' E 023°44'0 0.6
2017-Nov-18 19:30N 37°45' E 023°43'2 3.1
2017-Nov-18 18:59N 37°45' E 023°41'2 3.1
2017-Nov-18 18:28N 37°45' E 023°39'1 3.0
2017-Nov-18 17:59N 37°45' E 023°37'2 2.5
2017-Nov-18 17:10N 37°44' E 023°35'0 0.3
2017-Nov-18 17:00N 37°44' E 023°35'1 2.9
2017-Nov-18 16:30N 37°45' E 023°37'2 3.2
2017-Nov-18 15:51N 37°45' E 023°39'1 2.3
2017-Nov-18 15:27N 37°45' E 023°40'1 3.4
2017-Nov-18 15:00N 37°45' E 023°42'1 0.1
2017-Nov-18 04:38N 37°45' E 023°44'1 8.9
2017-Nov-18 04:30N 37°46' E 023°43'5 9.2
2017-Nov-18 04:00N 37°50' E 023°41'5 9.2
2017-Nov-18 03:30N 37°54' E 023°38'3 4.9
2017-Nov-18 02:52N 37°57' E 023°37'0 0.0
2017-Nov-18 02:30N 37°57' E 023°37'0 0.2
2017-Nov-18 01:09N 37°57' E 023°36'1 6.5
2017-Nov-18 01:00N 37°57' E 023°36'4 8.6
2017-Nov-18 00:30N 37°52' E 023°36'4 7.1
2017-Nov-18 00:00N 37°49' E 023°36'1 1.9
2017-Nov-17 23:28N 37°48' E 023°36'3 5.5
2017-Nov-17 23:00N 37°46' E 023°35'1 2.4
2017-Nov-17 22:27N 37°44' E 023°35'1 3.1
2017-Nov-17 22:00N 37°45' E 023°36'1 3.0
2017-Nov-17 21:30N 37°46' E 023°38'2 3.2
2017-Nov-17 21:00N 37°46' E 023°40'2 3.3
2017-Nov-17 20:27N 37°46' E 023°42'1 0.7
2017-Nov-17 19:08N 37°45' E 023°41'0 3.2
2017-Nov-17 19:00N 37°45' E 023°41'2 3.1
2017-Nov-17 18:26N 37°45' E 023°38'1 3.1
2017-Nov-17 17:58N 37°45' E 023°37'1 2.3
2017-Nov-17 17:30N 37°44' E 023°35'4 7.3
2017-Nov-17 17:00N 37°48' E 023°34'1 1.8
2017-Nov-17 16:30N 37°48' E 023°33'5 2.7
2017-Nov-17 14:30N 37°51' E 023°27'2 3.5
2017-Nov-17 13:56N 37°51' E 023°24'0 0.9
2017-Nov-17 13:30N 37°50' E 023°25'2 3.3
2017-Nov-17 12:58N 37°51' E 023°27'2 3.3
2017-Nov-17 12:26N 37°50' E 023°29'1 3.1
2017-Nov-17 11:58N 37°50' E 023°31'2 3.2
2017-Nov-17 11:19N 37°50' E 023°33'1 3.2
2017-Nov-17 11:00N 37°49' E 023°35'8 1.9
2017-Nov-17 06:39N 37°57' E 023°37'0 0.0
2017-Nov-17 06:30N 37°57' E 023°37'0 0.0
2017-Nov-17 06:00N 37°57' E 023°37'0 0.0
2017-Nov-17 05:30N 37°57' E 023°37'2 3.3
2017-Nov-17 05:00N 37°56' E 023°36'0 0.9
2017-Nov-17 04:30N 37°56' E 023°36'2 4.1
2017-Nov-17 04:01N 37°57' E 023°37'  
2017-Nov-10 20:47N 36°59' E 025°16'2 8.1
2017-Nov-10 20:30N 37°02' E 025°16'1 1.2
2017-Nov-10 20:01N 37°02' E 025°16'0 0.0
2017-Nov-10 19:30N 37°02' E 025°16'0 0.0
2017-Nov-10 19:01N 37°02' E 025°16'0 0.0
2017-Nov-10 18:30N 37°02' E 025°16'0 0.0
2017-Nov-10 18:00N 37°02' E 025°16'0 0.0
2017-Nov-10 17:30N 37°02' E 025°16'0 0.0
2017-Nov-10 17:01N 37°02' E 025°16'0 0.0
2017-Nov-10 16:14N 37°02' E 025°16'0 0.0
2017-Nov-10 16:00N 37°02' E 025°16'0 0.0
2017-Nov-10 15:31N 37°02' E 025°16'0 0.8
2017-Nov-10 15:00N 37°02' E 025°16'  

Dump ship's entire track history